sensor_id;sensor_type;location;lat;lon;timestamp;P1;durP1;ratioP1;P2;durP2;ratioP2
46411;SDS011;32113;42.012;24.870;2023-03-21T00:00:38;9.00;;;5.05;;
46411;SDS011;32113;42.012;24.870;2023-03-21T00:03:04;8.13;;;5.40;;
46411;SDS011;32113;42.012;24.870;2023-03-21T00:05:31;9.60;;;5.45;;
46411;SDS011;32113;42.012;24.870;2023-03-21T00:07:56;9.23;;;5.82;;
46411;SDS011;32113;42.012;24.870;2023-03-21T00:10:22;8.13;;;5.47;;
46411;SDS011;32113;42.012;24.870;2023-03-21T00:12:47;10.65;;;5.30;;
46411;SDS011;32113;42.012;24.870;2023-03-21T00:15:22;9.88;;;5.28;;
46411;SDS011;32113;42.012;24.870;2023-03-21T00:17:50;8.15;;;5.03;;
46411;SDS011;32113;42.012;24.870;2023-03-21T00:20:18;7.57;;;5.03;;
46411;SDS011;32113;42.012;24.870;2023-03-21T00:22:44;8.02;;;5.03;;
46411;SDS011;32113;42.012;24.870;2023-03-21T00:25:10;8.93;;;5.53;;
46411;SDS011;32113;42.012;24.870;2023-03-21T00:27:36;9.82;;;5.50;;
46411;SDS011;32113;42.012;24.870;2023-03-21T00:30:02;8.77;;;5.57;;
46411;SDS011;32113;42.012;24.870;2023-03-21T00:32:28;9.63;;;5.70;;
46411;SDS011;32113;42.012;24.870;2023-03-21T00:34:53;10.73;;;6.45;;
46411;SDS011;32113;42.012;24.870;2023-03-21T00:37:19;14.20;;;6.05;;
46411;SDS011;32113;42.012;24.870;2023-03-21T00:39:46;8.05;;;5.35;;
46411;SDS011;32113;42.012;24.870;2023-03-21T00:44:41;8.30;;;5.15;;
46411;SDS011;32113;42.012;24.870;2023-03-21T00:47:09;10.82;;;5.70;;
46411;SDS011;32113;42.012;24.870;2023-03-21T00:49:36;11.25;;;6.35;;
46411;SDS011;32113;42.012;24.870;2023-03-21T00:52:06;12.95;;;7.45;;
46411;SDS011;32113;42.012;24.870;2023-03-21T00:54:34;13.07;;;8.25;;
46411;SDS011;32113;42.012;24.870;2023-03-21T00:57:00;15.82;;;8.23;;
46411;SDS011;32113;42.012;24.870;2023-03-21T00:59:27;16.05;;;8.63;;
46411;SDS011;32113;42.012;24.870;2023-03-21T01:01:52;11.70;;;7.60;;
46411;SDS011;32113;42.012;24.870;2023-03-21T01:04:18;16.42;;;8.35;;
46411;SDS011;32113;42.012;24.870;2023-03-21T01:06:45;17.02;;;8.43;;
46411;SDS011;32113;42.012;24.870;2023-03-21T01:09:19;19.25;;;9.07;;
46411;SDS011;32113;42.012;24.870;2023-03-21T01:11:46;16.90;;;9.70;;
46411;SDS011;32113;42.012;24.870;2023-03-21T01:14:13;17.85;;;10.00;;
46411;SDS011;32113;42.012;24.870;2023-03-21T01:16:39;16.08;;;9.52;;
46411;SDS011;32113;42.012;24.870;2023-03-21T01:19:06;16.05;;;8.18;;
46411;SDS011;32113;42.012;24.870;2023-03-21T01:21:33;15.70;;;9.35;;
46411;SDS011;32113;42.012;24.870;2023-03-21T01:23:58;14.57;;;8.70;;
46411;SDS011;32113;42.012;24.870;2023-03-21T01:26:25;18.90;;;9.13;;
46411;SDS011;32113;42.012;24.870;2023-03-21T01:28:51;14.68;;;8.85;;
46411;SDS011;32113;42.012;24.870;2023-03-21T01:31:17;15.20;;;8.77;;
46411;SDS011;32113;42.012;24.870;2023-03-21T01:33:42;16.17;;;9.85;;
46411;SDS011;32113;42.012;24.870;2023-03-21T01:36:10;17.05;;;9.75;;
46411;SDS011;32113;42.012;24.870;2023-03-21T01:38:40;16.38;;;10.95;;
46411;SDS011;32113;42.012;24.870;2023-03-21T01:41:06;19.10;;;10.90;;
46411;SDS011;32113;42.012;24.870;2023-03-21T01:43:37;19.17;;;10.80;;
46411;SDS011;32113;42.012;24.870;2023-03-21T01:51:53;16.88;;;10.57;;
46411;SDS011;32113;42.012;24.870;2023-03-21T01:54:24;15.43;;;11.27;;
46411;SDS011;32113;42.012;24.870;2023-03-21T01:56:56;18.13;;;10.20;;
46411;SDS011;32113;42.012;24.870;2023-03-21T02:01:56;22.35;;;11.77;;
46411;SDS011;32113;42.012;24.870;2023-03-21T02:04:25;19.15;;;13.02;;
46411;SDS011;32113;42.012;24.870;2023-03-21T02:06:54;18.13;;;12.50;;
46411;SDS011;32113;42.012;24.870;2023-03-21T02:09:25;21.88;;;12.43;;
46411;SDS011;32113;42.012;24.870;2023-03-21T02:11:55;24.40;;;15.07;;
46411;SDS011;32113;42.012;24.870;2023-03-21T02:14:21;28.15;;;15.52;;
46411;SDS011;32113;42.012;24.870;2023-03-21T02:27:49;27.25;;;16.05;;
46411;SDS011;32113;42.012;24.870;2023-03-21T02:33:29;25.13;;;14.65;;
46411;SDS011;32113;42.012;24.870;2023-03-21T02:38:27;26.10;;;15.05;;
46411;SDS011;32113;42.012;24.870;2023-03-21T02:41:03;28.70;;;15.20;;
46411;SDS011;32113;42.012;24.870;2023-03-21T02:43:39;19.88;;;14.07;;
46411;SDS011;32113;42.012;24.870;2023-03-21T02:46:15;25.95;;;15.50;;
46411;SDS011;32113;42.012;24.870;2023-03-21T02:51:24;26.08;;;14.75;;
46411;SDS011;32113;42.012;24.870;2023-03-21T02:53:57;31.77;;;16.73;;
46411;SDS011;32113;42.012;24.870;2023-03-21T02:56:25;26.73;;;15.23;;
46411;SDS011;32113;42.012;24.870;2023-03-21T02:58:52;28.15;;;17.10;;
46411;SDS011;32113;42.012;24.870;2023-03-21T03:01:18;33.38;;;18.75;;
46411;SDS011;32113;42.012;24.870;2023-03-21T03:03:43;38.45;;;19.17;;
46411;SDS011;32113;42.012;24.870;2023-03-21T03:06:13;32.85;;;20.33;;
46411;SDS011;32113;42.012;24.870;2023-03-21T03:11:32;28.42;;;16.95;;
46411;SDS011;32113;42.012;24.870;2023-03-21T03:19:15;32.85;;;14.68;;
46411;SDS011;32113;42.012;24.870;2023-03-21T03:21:55;21.75;;;13.50;;
46411;SDS011;32113;42.012;24.870;2023-03-21T03:27:15;24.85;;;12.90;;
46411;SDS011;32113;42.012;24.870;2023-03-21T03:29:44;17.73;;;12.43;;
46411;SDS011;32113;42.012;24.870;2023-03-21T03:34:43;19.77;;;13.00;;
46411;SDS011;32113;42.012;24.870;2023-03-21T03:37:14;24.65;;;13.68;;
46411;SDS011;32113;42.012;24.870;2023-03-21T03:42:20;21.85;;;14.02;;
46411;SDS011;32113;42.012;24.870;2023-03-21T03:44:52;26.17;;;14.57;;
46411;SDS011;32113;42.012;24.870;2023-03-21T03:50:15;28.75;;;14.75;;
46411;SDS011;32113;42.012;24.870;2023-03-21T03:52:44;22.83;;;14.02;;
46411;SDS011;32113;42.012;24.870;2023-03-21T03:55:16;33.65;;;16.42;;
46411;SDS011;32113;42.012;24.870;2023-03-21T03:57:45;34.75;;;16.10;;
46411;SDS011;32113;42.012;24.870;2023-03-21T04:00:12;27.15;;;15.10;;
46411;SDS011;32113;42.012;24.870;2023-03-21T04:02:39;26.27;;;15.68;;
46411;SDS011;32113;42.012;24.870;2023-03-21T04:05:06;33.03;;;16.63;;
46411;SDS011;32113;42.012;24.870;2023-03-21T04:07:32;29.63;;;16.50;;
46411;SDS011;32113;42.012;24.870;2023-03-21T04:09:57;28.25;;;17.35;;
46411;SDS011;32113;42.012;24.870;2023-03-21T04:12:23;33.90;;;17.95;;
46411;SDS011;32113;42.012;24.870;2023-03-21T04:14:48;34.83;;;18.25;;
46411;SDS011;32113;42.012;24.870;2023-03-21T04:17:14;30.08;;;17.23;;
46411;SDS011;32113;42.012;24.870;2023-03-21T04:19:40;36.80;;;17.02;;
46411;SDS011;32113;42.012;24.870;2023-03-21T04:22:05;37.58;;;17.38;;
46411;SDS011;32113;42.012;24.870;2023-03-21T04:24:31;30.63;;;17.02;;
46411;SDS011;32113;42.012;24.870;2023-03-21T04:26:58;30.45;;;16.92;;
46411;SDS011;32113;42.012;24.870;2023-03-21T04:29:24;33.47;;;16.85;;
46411;SDS011;32113;42.012;24.870;2023-03-21T04:31:53;32.08;;;17.67;;
46411;SDS011;32113;42.012;24.870;2023-03-21T04:34:18;33.72;;;17.98;;
46411;SDS011;32113;42.012;24.870;2023-03-21T04:36:47;30.13;;;17.35;;
46411;SDS011;32113;42.012;24.870;2023-03-21T04:39:15;27.98;;;16.85;;
46411;SDS011;32113;42.012;24.870;2023-03-21T04:41:41;29.85;;;16.70;;
46411;SDS011;32113;42.012;24.870;2023-03-21T04:44:08;29.10;;;16.90;;
46411;SDS011;32113;42.012;24.870;2023-03-21T04:46:35;34.78;;;16.77;;
46411;SDS011;32113;42.012;24.870;2023-03-21T04:49:01;32.15;;;17.40;;
46411;SDS011;32113;42.012;24.870;2023-03-21T04:51:28;30.05;;;17.02;;
46411;SDS011;32113;42.012;24.870;2023-03-21T04:53:53;28.23;;;16.63;;
46411;SDS011;32113;42.012;24.870;2023-03-21T04:56:22;29.08;;;15.65;;
46411;SDS011;32113;42.012;24.870;2023-03-21T04:58:54;31.80;;;17.23;;
46411;SDS011;32113;42.012;24.870;2023-03-21T05:01:20;30.73;;;17.20;;
46411;SDS011;32113;42.012;24.870;2023-03-21T05:03:46;28.50;;;16.70;;
46411;SDS011;32113;42.012;24.870;2023-03-21T05:06:11;32.35;;;17.58;;
46411;SDS011;32113;42.012;24.870;2023-03-21T05:08:36;34.78;;;18.05;;
46411;SDS011;32113;42.012;24.870;2023-03-21T05:11:02;33.25;;;18.23;;
46411;SDS011;32113;42.012;24.870;2023-03-21T05:13:28;32.35;;;19.10;;
46411;SDS011;32113;42.012;24.870;2023-03-21T05:15:53;36.10;;;19.42;;
46411;SDS011;32113;42.012;24.870;2023-03-21T05:18:19;36.33;;;19.23;;
46411;SDS011;32113;42.012;24.870;2023-03-21T05:20:49;36.30;;;19.77;;
46411;SDS011;32113;42.012;24.870;2023-03-21T05:23:18;35.22;;;20.40;;
46411;SDS011;32113;42.012;24.870;2023-03-21T05:25:44;34.72;;;20.00;;
46411;SDS011;32113;42.012;24.870;2023-03-21T05:28:09;37.90;;;23.42;;
46411;SDS011;32113;42.012;24.870;2023-03-21T05:30:35;34.00;;;20.60;;
46411;SDS011;32113;42.012;24.870;2023-03-21T05:33:00;32.05;;;20.40;;
46411;SDS011;32113;42.012;24.870;2023-03-21T05:35:25;28.83;;;19.15;;
46411;SDS011;32113;42.012;24.870;2023-03-21T05:37:51;34.63;;;20.85;;
46411;SDS011;32113;42.012;24.870;2023-03-21T05:40:17;40.28;;;20.52;;
46411;SDS011;32113;42.012;24.870;2023-03-21T05:42:43;34.13;;;20.63;;
46411;SDS011;32113;42.012;24.870;2023-03-21T05:45:09;34.92;;;19.98;;
46411;SDS011;32113;42.012;24.870;2023-03-21T05:47:35;38.50;;;23.10;;
46411;SDS011;32113;42.012;24.870;2023-03-21T05:50:00;40.88;;;21.02;;
46411;SDS011;32113;42.012;24.870;2023-03-21T05:52:26;38.72;;;21.13;;
46411;SDS011;32113;42.012;24.870;2023-03-21T05:54:52;37.75;;;20.40;;
46411;SDS011;32113;42.012;24.870;2023-03-21T05:57:17;36.92;;;20.60;;
46411;SDS011;32113;42.012;24.870;2023-03-21T05:59:43;39.05;;;21.40;;
46411;SDS011;32113;42.012;24.870;2023-03-21T06:02:09;36.50;;;21.30;;
46411;SDS011;32113;42.012;24.870;2023-03-21T06:04:34;39.33;;;21.13;;
46411;SDS011;32113;42.012;24.870;2023-03-21T06:07:00;44.83;;;21.23;;
46411;SDS011;32113;42.012;24.870;2023-03-21T06:09:25;42.15;;;20.92;;
46411;SDS011;32113;42.012;24.870;2023-03-21T06:11:52;36.50;;;21.00;;
46411;SDS011;32113;42.012;24.870;2023-03-21T06:14:19;40.13;;;20.25;;
46411;SDS011;32113;42.012;24.870;2023-03-21T06:16:45;39.88;;;22.58;;
46411;SDS011;32113;42.012;24.870;2023-03-21T06:19:11;40.35;;;23.60;;
46411;SDS011;32113;42.012;24.870;2023-03-21T06:21:36;40.88;;;25.02;;
46411;SDS011;32113;42.012;24.870;2023-03-21T06:24:02;32.92;;;21.10;;
46411;SDS011;32113;42.012;24.870;2023-03-21T06:26:27;35.97;;;21.73;;
46411;SDS011;32113;42.012;24.870;2023-03-21T06:28:53;35.42;;;22.13;;
46411;SDS011;32113;42.012;24.870;2023-03-21T06:31:19;37.65;;;21.98;;
46411;SDS011;32113;42.012;24.870;2023-03-21T06:33:47;39.38;;;22.20;;
46411;SDS011;32113;42.012;24.870;2023-03-21T06:36:13;46.80;;;24.80;;
46411;SDS011;32113;42.012;24.870;2023-03-21T06:38:38;45.20;;;24.77;;
46411;SDS011;32113;42.012;24.870;2023-03-21T06:41:04;48.58;;;25.17;;
46411;SDS011;32113;42.012;24.870;2023-03-21T06:43:31;48.90;;;26.83;;
46411;SDS011;32113;42.012;24.870;2023-03-21T06:45:57;61.03;;;30.48;;
46411;SDS011;32113;42.012;24.870;2023-03-21T06:48:24;52.83;;;30.65;;
46411;SDS011;32113;42.012;24.870;2023-03-21T06:50:50;43.92;;;29.80;;
46411;SDS011;32113;42.012;24.870;2023-03-21T06:53:17;48.58;;;28.50;;
46411;SDS011;32113;42.012;24.870;2023-03-21T06:55:47;53.47;;;28.85;;
46411;SDS011;32113;42.012;24.870;2023-03-21T06:58:16;52.72;;;29.08;;
46411;SDS011;32113;42.012;24.870;2023-03-21T07:00:42;52.25;;;29.00;;
46411;SDS011;32113;42.012;24.870;2023-03-21T07:03:09;50.22;;;28.00;;
46411;SDS011;32113;42.012;24.870;2023-03-21T07:05:35;47.28;;;28.90;;
46411;SDS011;32113;42.012;24.870;2023-03-21T07:08:01;51.10;;;29.83;;
46411;SDS011;32113;42.012;24.870;2023-03-21T07:10:27;46.13;;;30.15;;
46411;SDS011;32113;42.012;24.870;2023-03-21T07:12:52;51.78;;;30.80;;
46411;SDS011;32113;42.012;24.870;2023-03-21T07:15:18;43.50;;;26.83;;
46411;SDS011;32113;42.012;24.870;2023-03-21T07:17:43;52.47;;;24.25;;
46411;SDS011;32113;42.012;24.870;2023-03-21T07:20:09;40.92;;;24.23;;
46411;SDS011;32113;42.012;24.870;2023-03-21T07:22:36;47.10;;;23.05;;
46411;SDS011;32113;42.012;24.870;2023-03-21T07:25:02;43.85;;;23.55;;
46411;SDS011;32113;42.012;24.870;2023-03-21T07:27:28;36.05;;;22.65;;
46411;SDS011;32113;42.012;24.870;2023-03-21T07:29:54;32.95;;;22.02;;
46411;SDS011;32113;42.012;24.870;2023-03-21T07:32:19;42.65;;;22.67;;
46411;SDS011;32113;42.012;24.870;2023-03-21T07:34:45;36.05;;;21.50;;
46411;SDS011;32113;42.012;24.870;2023-03-21T07:37:10;38.72;;;21.67;;
46411;SDS011;32113;42.012;24.870;2023-03-21T07:39:36;37.33;;;22.35;;
46411;SDS011;32113;42.012;24.870;2023-03-21T07:42:02;40.30;;;21.90;;
46411;SDS011;32113;42.012;24.870;2023-03-21T07:44:27;37.17;;;20.88;;
46411;SDS011;32113;42.012;24.870;2023-03-21T07:46:54;42.78;;;20.60;;
46411;SDS011;32113;42.012;24.870;2023-03-21T07:49:20;33.10;;;19.77;;
46411;SDS011;32113;42.012;24.870;2023-03-21T07:51:45;32.35;;;18.77;;
46411;SDS011;32113;42.012;24.870;2023-03-21T07:54:11;38.72;;;19.05;;
46411;SDS011;32113;42.012;24.870;2023-03-21T07:56:36;32.47;;;17.77;;
46411;SDS011;32113;42.012;24.870;2023-03-21T07:59:02;32.70;;;18.35;;
46411;SDS011;32113;42.012;24.870;2023-03-21T08:01:29;29.45;;;17.08;;
46411;SDS011;32113;42.012;24.870;2023-03-21T08:03:54;27.33;;;17.45;;
46411;SDS011;32113;42.012;24.870;2023-03-21T08:06:20;27.38;;;16.92;;
46411;SDS011;32113;42.012;24.870;2023-03-21T08:08:45;30.35;;;16.77;;
46411;SDS011;32113;42.012;24.870;2023-03-21T08:11:11;33.13;;;17.25;;
46411;SDS011;32113;42.012;24.870;2023-03-21T08:13:36;30.83;;;18.00;;
46411;SDS011;32113;42.012;24.870;2023-03-21T08:16:02;34.33;;;18.30;;
46411;SDS011;32113;42.012;24.870;2023-03-21T08:18:28;36.10;;;18.55;;
46411;SDS011;32113;42.012;24.870;2023-03-21T08:20:54;36.33;;;18.80;;
46411;SDS011;32113;42.012;24.870;2023-03-21T08:23:20;25.03;;;17.60;;
46411;SDS011;32113;42.012;24.870;2023-03-21T08:25:50;31.30;;;17.60;;
46411;SDS011;32113;42.012;24.870;2023-03-21T08:28:19;28.17;;;19.70;;
46411;SDS011;32113;42.012;24.870;2023-03-21T08:30:45;29.40;;;19.27;;
46411;SDS011;32113;42.012;24.870;2023-03-21T08:33:11;33.30;;;19.35;;
46411;SDS011;32113;42.012;24.870;2023-03-21T08:35:37;30.15;;;17.75;;
46411;SDS011;32113;42.012;24.870;2023-03-21T08:38:04;27.83;;;17.02;;
46411;SDS011;32113;42.012;24.870;2023-03-21T08:40:30;27.20;;;17.10;;
46411;SDS011;32113;42.012;24.870;2023-03-21T08:42:56;27.77;;;16.38;;
46411;SDS011;32113;42.012;24.870;2023-03-21T08:45:22;28.02;;;17.38;;
46411;SDS011;32113;42.012;24.870;2023-03-21T08:47:48;29.30;;;15.55;;
46411;SDS011;32113;42.012;24.870;2023-03-21T08:50:16;25.58;;;15.82;;
46411;SDS011;32113;42.012;24.870;2023-03-21T08:52:43;32.78;;;16.15;;
46411;SDS011;32113;42.012;24.870;2023-03-21T08:55:09;32.67;;;16.25;;
46411;SDS011;32113;42.012;24.870;2023-03-21T08:57:35;27.00;;;15.15;;
46411;SDS011;32113;42.012;24.870;2023-03-21T09:00:01;31.88;;;16.83;;
46411;SDS011;32113;42.012;24.870;2023-03-21T09:02:31;47.47;;;17.13;;
46411;SDS011;32113;42.012;24.870;2023-03-21T09:04:57;36.92;;;17.40;;
46411;SDS011;32113;42.012;24.870;2023-03-21T09:07:22;26.77;;;16.70;;
46411;SDS011;32113;42.012;24.870;2023-03-21T09:09:50;26.83;;;16.08;;
46411;SDS011;32113;42.012;24.870;2023-03-21T09:12:17;20.00;;;14.30;;
46411;SDS011;32113;42.012;24.870;2023-03-21T09:14:43;26.80;;;14.73;;
46411;SDS011;32113;42.012;24.870;2023-03-21T09:17:08;23.65;;;14.07;;
46411;SDS011;32113;42.012;24.870;2023-03-21T09:19:34;28.27;;;14.38;;
46411;SDS011;32113;42.012;24.870;2023-03-21T09:21:59;24.08;;;14.25;;
46411;SDS011;32113;42.012;24.870;2023-03-21T09:24:26;24.10;;;14.60;;
46411;SDS011;32113;42.012;24.870;2023-03-21T09:26:52;26.35;;;15.13;;
46411;SDS011;32113;42.012;24.870;2023-03-21T09:29:17;25.48;;;13.82;;
46411;SDS011;32113;42.012;24.870;2023-03-21T09:31:44;21.13;;;14.02;;
46411;SDS011;32113;42.012;24.870;2023-03-21T09:34:11;19.05;;;15.02;;
46411;SDS011;32113;42.012;24.870;2023-03-21T09:36:38;20.30;;;13.98;;
46411;SDS011;32113;42.012;24.870;2023-03-21T09:39:06;18.70;;;12.80;;
46411;SDS011;32113;42.012;24.870;2023-03-21T09:44:33;20.27;;;12.20;;
46411;SDS011;32113;42.012;24.870;2023-03-21T09:49:39;19.45;;;12.57;;
46411;SDS011;32113;42.012;24.870;2023-03-21T09:52:16;26.30;;;12.98;;
46411;SDS011;32113;42.012;24.870;2023-03-21T09:54:47;22.77;;;13.48;;
46411;SDS011;32113;42.012;24.870;2023-03-21T09:57:36;20.63;;;13.90;;
46411;SDS011;32113;42.012;24.870;2023-03-21T10:00:06;24.15;;;12.52;;
46411;SDS011;32113;42.012;24.870;2023-03-21T10:02:45;21.45;;;12.88;;
46411;SDS011;32113;42.012;24.870;2023-03-21T10:05:23;16.73;;;11.88;;
46411;SDS011;32113;42.012;24.870;2023-03-21T10:10:30;21.83;;;11.70;;
46411;SDS011;32113;42.012;24.870;2023-03-21T10:13:00;17.17;;;11.95;;
46411;SDS011;32113;42.012;24.870;2023-03-21T10:15:26;20.55;;;11.27;;
46411;SDS011;32113;42.012;24.870;2023-03-21T10:20:20;15.90;;;10.40;;
46411;SDS011;32113;42.012;24.870;2023-03-21T10:22:48;19.48;;;11.88;;
46411;SDS011;32113;42.012;24.870;2023-03-21T10:25:17;18.65;;;10.95;;
46411;SDS011;32113;42.012;24.870;2023-03-21T10:27:45;19.60;;;11.02;;
46411;SDS011;32113;42.012;24.870;2023-03-21T10:30:22;17.25;;;10.00;;
46411;SDS011;32113;42.012;24.870;2023-03-21T10:32:55;23.63;;;10.07;;
46411;SDS011;32113;42.012;24.870;2023-03-21T10:35:23;15.68;;;10.05;;
46411;SDS011;32113;42.012;24.870;2023-03-21T10:37:49;16.00;;;10.32;;
46411;SDS011;32113;42.012;24.870;2023-03-21T10:40:15;15.98;;;9.38;;
46411;SDS011;32113;42.012;24.870;2023-03-21T10:42:41;15.40;;;8.63;;
46411;SDS011;32113;42.012;24.870;2023-03-21T10:45:17;14.35;;;8.52;;
46411;SDS011;32113;42.012;24.870;2023-03-21T10:47:46;20.15;;;9.65;;
46411;SDS011;32113;42.012;24.870;2023-03-21T10:50:12;16.33;;;9.18;;
46411;SDS011;32113;42.012;24.870;2023-03-21T10:52:41;19.08;;;9.13;;
46411;SDS011;32113;42.012;24.870;2023-03-21T10:55:19;15.20;;;9.35;;
46411;SDS011;32113;42.012;24.870;2023-03-21T10:57:51;14.83;;;8.77;;
46411;SDS011;32113;42.012;24.870;2023-03-21T11:00:20;16.25;;;9.15;;
46411;SDS011;32113;42.012;24.870;2023-03-21T11:02:49;16.30;;;9.48;;
46411;SDS011;32113;42.012;24.870;2023-03-21T11:05:21;14.07;;;9.10;;
46411;SDS011;32113;42.012;24.870;2023-03-21T11:07:58;19.65;;;10.65;;
46411;SDS011;32113;42.012;24.870;2023-03-21T11:10:29;19.42;;;9.73;;
46411;SDS011;32113;42.012;24.870;2023-03-21T11:12:58;16.63;;;9.20;;
46411;SDS011;32113;42.012;24.870;2023-03-21T11:15:29;17.60;;;9.95;;
46411;SDS011;32113;42.012;24.870;2023-03-21T11:17:57;18.00;;;9.63;;
46411;SDS011;32113;42.012;24.870;2023-03-21T11:20:23;15.32;;;10.20;;
46411;SDS011;32113;42.012;24.870;2023-03-21T11:22:53;21.30;;;10.30;;
46411;SDS011;32113;42.012;24.870;2023-03-21T11:25:31;18.00;;;9.87;;
46411;SDS011;32113;42.012;24.870;2023-03-21T11:28:05;15.98;;;10.15;;
46411;SDS011;32113;42.012;24.870;2023-03-21T11:30:36;15.18;;;10.18;;
46411;SDS011;32113;42.012;24.870;2023-03-21T11:33:02;22.58;;;10.23;;
46411;SDS011;32113;42.012;24.870;2023-03-21T11:35:35;19.42;;;9.15;;
46411;SDS011;32113;42.012;24.870;2023-03-21T11:38:02;16.05;;;9.95;;
46411;SDS011;32113;42.012;24.870;2023-03-21T11:40:30;24.25;;;9.82;;
46411;SDS011;32113;42.012;24.870;2023-03-21T11:42:58;15.60;;;9.45;;
46411;SDS011;32113;42.012;24.870;2023-03-21T11:48:31;22.55;;;9.73;;
46411;SDS011;32113;42.012;24.870;2023-03-21T11:51:02;21.63;;;8.43;;
46411;SDS011;32113;42.012;24.870;2023-03-21T11:59:01;18.25;;;7.93;;
46411;SDS011;32113;42.012;24.870;2023-03-21T12:07:25;14.85;;;8.57;;
46411;SDS011;32113;42.012;24.870;2023-03-21T12:12:53;12.20;;;9.18;;
46411;SDS011;32113;42.012;24.870;2023-03-21T12:15:35;15.27;;;9.27;;
46411;SDS011;32113;42.012;24.870;2023-03-21T12:20:59;18.45;;;9.25;;
46411;SDS011;32113;42.012;24.870;2023-03-21T12:28:59;19.02;;;9.30;;
46411;SDS011;32113;42.012;24.870;2023-03-21T12:39:40;17.60;;;9.60;;
46411;SDS011;32113;42.012;24.870;2023-03-21T12:45:27;15.45;;;9.55;;
46411;SDS011;32113;42.012;24.870;2023-03-21T12:47:59;17.98;;;9.50;;
46411;SDS011;32113;42.012;24.870;2023-03-21T12:50:46;16.83;;;9.85;;
46411;SDS011;32113;42.012;24.870;2023-03-21T12:56:05;29.95;;;11.00;;
46411;SDS011;32113;42.012;24.870;2023-03-21T12:58:44;22.48;;;11.40;;
46411;SDS011;32113;42.012;24.870;2023-03-21T13:01:14;29.13;;;10.82;;
46411;SDS011;32113;42.012;24.870;2023-03-21T13:03:43;17.48;;;8.90;;
46411;SDS011;32113;42.012;24.870;2023-03-21T13:06:15;17.42;;;9.93;;
46411;SDS011;32113;42.012;24.870;2023-03-21T13:11:14;18.38;;;9.60;;
46411;SDS011;32113;42.012;24.870;2023-03-21T13:13:46;17.20;;;8.85;;
46411;SDS011;32113;42.012;24.870;2023-03-21T13:22:09;13.43;;;10.05;;
46411;SDS011;32113;42.012;24.870;2023-03-21T13:24:46;19.98;;;10.70;;
46411;SDS011;32113;42.012;24.870;2023-03-21T13:27:32;28.10;;;11.18;;
46411;SDS011;32113;42.012;24.870;2023-03-21T13:32:34;20.77;;;11.32;;
46411;SDS011;32113;42.012;24.870;2023-03-21T13:35:12;23.45;;;12.07;;
46411;SDS011;32113;42.012;24.870;2023-03-21T13:37:57;23.83;;;10.50;;
46411;SDS011;32113;42.012;24.870;2023-03-21T13:40:28;19.73;;;11.68;;
46411;SDS011;32113;42.012;24.870;2023-03-21T13:43:01;19.95;;;11.73;;
46411;SDS011;32113;42.012;24.870;2023-03-21T13:45:32;18.75;;;11.32;;
46411;SDS011;32113;42.012;24.870;2023-03-21T13:48:24;19.50;;;12.85;;
46411;SDS011;32113;42.012;24.870;2023-03-21T13:50:52;22.10;;;11.90;;
46411;SDS011;32113;42.012;24.870;2023-03-21T13:53:29;24.17;;;11.82;;
46411;SDS011;32113;42.012;24.870;2023-03-21T13:55:57;23.08;;;12.25;;
46411;SDS011;32113;42.012;24.870;2023-03-21T14:04:16;22.27;;;12.48;;
46411;SDS011;32113;42.012;24.870;2023-03-21T14:09:10;24.30;;;11.75;;
46411;SDS011;32113;42.012;24.870;2023-03-21T14:11:43;23.88;;;13.05;;
46411;SDS011;32113;42.012;24.870;2023-03-21T14:14:12;20.05;;;12.10;;
46411;SDS011;32113;42.012;24.870;2023-03-21T14:16:38;19.40;;;11.07;;
46411;SDS011;32113;42.012;24.870;2023-03-21T14:19:05;22.05;;;11.43;;
46411;SDS011;32113;42.012;24.870;2023-03-21T14:21:31;22.88;;;12.88;;
46411;SDS011;32113;42.012;24.870;2023-03-21T14:24:00;18.85;;;12.35;;
46411;SDS011;32113;42.012;24.870;2023-03-21T14:26:33;24.02;;;13.18;;
46411;SDS011;32113;42.012;24.870;2023-03-21T14:29:01;20.80;;;13.77;;
46411;SDS011;32113;42.012;24.870;2023-03-21T14:31:30;32.22;;;15.60;;
46411;SDS011;32113;42.012;24.870;2023-03-21T14:33:57;39.22;;;17.10;;
46411;SDS011;32113;42.012;24.870;2023-03-21T14:36:26;25.27;;;15.02;;
46411;SDS011;32113;42.012;24.870;2023-03-21T14:38:55;22.77;;;13.30;;
46411;SDS011;32113;42.012;24.870;2023-03-21T14:41:24;21.20;;;13.07;;
46411;SDS011;32113;42.012;24.870;2023-03-21T14:49:31;23.50;;;14.45;;
46411;SDS011;32113;42.012;24.870;2023-03-21T14:52:00;23.58;;;13.55;;
46411;SDS011;32113;42.012;24.870;2023-03-21T14:54:28;23.15;;;13.48;;
46411;SDS011;32113;42.012;24.870;2023-03-21T14:56:59;22.70;;;14.80;;
46411;SDS011;32113;42.012;24.870;2023-03-21T14:59:28;30.17;;;15.98;;
46411;SDS011;32113;42.012;24.870;2023-03-21T15:01:58;22.58;;;14.52;;
46411;SDS011;32113;42.012;24.870;2023-03-21T15:04:27;24.77;;;15.25;;
46411;SDS011;32113;42.012;24.870;2023-03-21T15:06:55;28.27;;;14.90;;
46411;SDS011;32113;42.012;24.870;2023-03-21T15:09:29;26.20;;;14.55;;
46411;SDS011;32113;42.012;24.870;2023-03-21T15:11:56;26.65;;;14.77;;
46411;SDS011;32113;42.012;24.870;2023-03-21T15:14:30;27.42;;;15.10;;
46411;SDS011;32113;42.012;24.870;2023-03-21T15:16:59;24.13;;;14.60;;
46411;SDS011;32113;42.012;24.870;2023-03-21T15:19:33;25.77;;;15.10;;
46411;SDS011;32113;42.012;24.870;2023-03-21T15:22:24;24.42;;;14.80;;
46411;SDS011;32113;42.012;24.870;2023-03-21T15:24:56;24.70;;;15.30;;
46411;SDS011;32113;42.012;24.870;2023-03-21T15:27:24;26.30;;;15.57;;
46411;SDS011;32113;42.012;24.870;2023-03-21T15:29:59;25.05;;;14.52;;
46411;SDS011;32113;42.012;24.870;2023-03-21T15:32:26;28.80;;;16.20;;
46411;SDS011;32113;42.012;24.870;2023-03-21T15:34:53;31.70;;;16.30;;
46411;SDS011;32113;42.012;24.870;2023-03-21T15:37:26;23.92;;;15.95;;
46411;SDS011;32113;42.012;24.870;2023-03-21T15:40:05;37.70;;;18.83;;
46411;SDS011;32113;42.012;24.870;2023-03-21T15:42:37;26.05;;;16.40;;
46411;SDS011;32113;42.012;24.870;2023-03-21T15:45:20;37.33;;;17.45;;
46411;SDS011;32113;42.012;24.870;2023-03-21T15:50:28;26.73;;;16.35;;
46411;SDS011;32113;42.012;24.870;2023-03-21T15:53:00;26.63;;;15.63;;
46411;SDS011;32113;42.012;24.870;2023-03-21T15:55:30;23.73;;;16.27;;
46411;SDS011;32113;42.012;24.870;2023-03-21T15:58:03;33.55;;;17.17;;
46411;SDS011;32113;42.012;24.870;2023-03-21T16:00:37;39.47;;;20.85;;
46411;SDS011;32113;42.012;24.870;2023-03-21T16:03:15;40.05;;;22.25;;
46411;SDS011;32113;42.012;24.870;2023-03-21T16:08:54;43.47;;;23.60;;
46411;SDS011;32113;42.012;24.870;2023-03-21T16:11:29;36.08;;;21.75;;
46411;SDS011;32113;42.012;24.870;2023-03-21T16:14:02;32.42;;;19.60;;
46411;SDS011;32113;42.012;24.870;2023-03-21T16:16:28;37.78;;;21.02;;
46411;SDS011;32113;42.012;24.870;2023-03-21T16:18:55;40.22;;;20.05;;
46411;SDS011;32113;42.012;24.870;2023-03-21T16:21:26;36.00;;;21.90;;
46411;SDS011;32113;42.012;24.870;2023-03-21T16:23:53;35.40;;;20.88;;
46411;SDS011;32113;42.012;24.870;2023-03-21T16:26:20;33.55;;;19.92;;
46411;SDS011;32113;42.012;24.870;2023-03-21T16:28:47;29.98;;;18.55;;